createdAt,value
2019-06-08T00:01:18.491Z,55.48
2019-06-08T00:03:51.542Z,55.57
2019-06-08T00:06:24.309Z,55.59
2019-06-08T00:08:57.446Z,55.42
2019-06-08T00:11:30.679Z,55.22
2019-06-08T00:14:02.953Z,54.84
2019-06-08T00:16:35.146Z,54.86
2019-06-08T00:19:08.306Z,54.60
2019-06-08T00:21:40.511Z,54.36
2019-06-08T00:24:15.780Z,53.98
2019-06-08T00:26:48.769Z,53.67
2019-06-08T00:29:22.443Z,53.40
2019-06-08T00:31:56.311Z,52.95
2019-06-08T00:34:28.551Z,52.88
2019-06-08T00:37:01.684Z,52.74
2019-06-08T00:39:33.848Z,52.55
2019-06-08T00:42:06.113Z,52.43
2019-06-08T00:44:38.327Z,52.56
2019-06-08T00:47:10.656Z,52.65
2019-06-08T00:49:42.933Z,53.11
2019-06-08T00:52:16.909Z,53.45
2019-06-08T00:54:49.250Z,53.62
2019-06-08T00:57:22.169Z,53.85
2019-06-08T00:59:54.393Z,54.41
2019-06-08T01:02:28.585Z,54.54
2019-06-08T01:05:03.004Z,54.59
2019-06-08T01:07:35.172Z,54.54
2019-06-08T01:10:09.361Z,54.34
2019-06-08T01:12:41.547Z,52.89
2019-06-08T01:15:16.397Z,52.16
2019-06-08T01:18:01.611Z,51.99
2019-06-08T01:20:35.929Z,51.58
2019-06-08T01:23:08.194Z,51.73
2019-06-08T01:25:40.493Z,51.34
2019-06-08T01:28:12.688Z,51.53
2019-06-08T01:30:44.973Z,51.40
2019-06-08T01:33:17.180Z,51.41
2019-06-08T01:35:49.695Z,51.30
2019-06-08T01:38:22.915Z,51.45
2019-06-08T01:40:55.367Z,51.58
2019-06-08T01:43:27.785Z,51.53
2019-06-08T01:46:01.186Z,51.31
2019-06-08T01:48:33.331Z,50.94
2019-06-08T01:51:05.613Z,50.85
2019-06-08T01:53:37.831Z,51.37
2019-06-08T01:56:10.119Z,51.15
2019-06-08T01:58:42.278Z,51.10
2019-06-08T02:01:14.634Z,51.08
2019-06-08T02:03:46.811Z,50.94
2019-06-08T02:06:19.086Z,51.03
2019-06-08T02:08:51.246Z,50.94
2019-06-08T02:11:24.513Z,51.06
2019-06-08T02:13:56.812Z,50.98
2019-06-08T02:16:29.728Z,51.11
2019-06-08T02:19:02.114Z,51.29
2019-06-08T02:21:35.338Z,51.44
2019-06-08T02:24:07.584Z,51.53
2019-06-08T02:26:40.399Z,51.81
2019-06-08T02:29:12.676Z,51.72
2019-06-08T02:31:48.032Z,51.98
2019-06-08T02:34:21.553Z,52.05
2019-06-08T02:36:53.701Z,52.16
2019-06-08T02:39:28.526Z,52.10
2019-06-08T02:42:01.870Z,51.82
2019-06-08T02:44:36.284Z,52.11
2019-06-08T02:47:09.598Z,52.24
2019-06-08T02:49:41.850Z,51.81
2019-06-08T02:52:15.292Z,51.91
2019-06-08T02:54:47.600Z,51.84
2019-06-08T02:57:21.601Z,51.99
2019-06-08T02:59:54.845Z,52.12
2019-06-08T03:02:31.626Z,51.81
2019-06-08T03:05:05.168Z,51.85
2019-06-08T03:07:39.012Z,52.03
2019-06-08T03:10:14.702Z,51.79
2019-06-08T03:12:47.568Z,52.05
2019-06-08T03:15:32.419Z,52.02
2019-06-08T03:18:06.832Z,52.10
2019-06-08T03:20:40.118Z,52.17
2019-06-08T03:23:14.572Z,52.27
2019-06-08T03:25:53.187Z,52.34
2019-06-08T03:28:25.870Z,52.51
2019-06-08T03:30:58.193Z,52.17
2019-06-08T03:33:30.367Z,52.33
2019-06-08T03:36:03.118Z,52.38
2019-06-08T03:38:35.796Z,52.66
2019-06-08T03:41:08.229Z,52.87
2019-06-08T03:43:42.411Z,53.16
2019-06-08T03:46:14.784Z,53.19
2019-06-08T03:48:47.921Z,52.88
2019-06-08T03:51:20.163Z,53.07
2019-06-08T03:53:52.413Z,53.16
2019-06-08T03:56:25.439Z,53.24
2019-06-08T03:58:57.910Z,53.04
2019-06-08T04:01:31.805Z,53.05
2019-06-08T04:04:04.042Z,53.14
2019-06-08T04:06:37.659Z,52.98
2019-06-08T04:09:10.221Z,52.86
2019-06-08T04:11:44.303Z,52.93
2019-06-08T04:14:17.292Z,52.26
2019-06-08T04:16:50.261Z,52.38
2019-06-08T04:19:23.664Z,52.55
2019-06-08T04:21:55.992Z,52.65
2019-06-08T04:24:28.869Z,52.58
2019-06-08T04:27:01.864Z,52.36
2019-06-08T04:29:34.072Z,52.51
2019-06-08T04:32:06.349Z,52.56
2019-06-08T04:34:40.868Z,52.44
2019-06-08T04:37:15.967Z,52.23
2019-06-08T04:39:48.272Z,52.43
2019-06-08T04:42:21.166Z,52.62
2019-06-08T04:44:53.369Z,52.52
2019-06-08T04:47:27.005Z,52.61
2019-06-08T04:49:59.177Z,52.83
2019-06-08T04:52:35.252Z,53.01
2019-06-08T04:55:14.673Z,53.15
2019-06-08T04:57:52.972Z,53.24
2019-06-08T05:00:25.897Z,53.30
2019-06-08T05:02:59.540Z,53.41
2019-06-08T05:05:32.607Z,53.50
2019-06-08T05:08:08.764Z,53.33
2019-06-08T05:10:41.234Z,53.47
2019-06-08T05:13:13.763Z,53.63
2019-06-08T05:15:47.242Z,53.69
2019-06-08T05:18:19.829Z,53.96
2019-06-08T05:20:52.985Z,53.46
2019-06-08T05:23:25.277Z,53.48
2019-06-08T05:25:57.466Z,53.49
2019-06-08T05:28:30.354Z,52.51
2019-06-08T05:31:02.573Z,52.64
2019-06-08T05:33:34.822Z,52.81
2019-06-08T05:36:07.035Z,52.77
2019-06-08T05:38:39.508Z,52.76
2019-06-08T05:41:11.751Z,52.98
2019-06-08T05:43:43.999Z,52.76
2019-06-08T05:46:16.320Z,52.99
2019-06-08T05:48:50.526Z,52.26
2019-06-08T05:51:23.512Z,51.73
2019-06-08T05:53:55.800Z,52.22
2019-06-08T05:56:29.009Z,52.06
2019-06-08T05:59:01.304Z,52.44
2019-06-08T06:01:34.061Z,52.30
2019-06-08T06:04:06.302Z,51.73
2019-06-08T06:06:38.812Z,51.71
2019-06-08T06:09:14.115Z,52.13
2019-06-08T06:11:48.914Z,51.76
2019-06-08T06:14:21.258Z,51.88
2019-06-08T06:16:53.574Z,51.79
2019-06-08T06:19:25.820Z,51.51
2019-06-08T06:22:03.105Z,52.18
2019-06-08T06:24:37.175Z,52.09
2019-06-08T06:27:09.769Z,52.25
2019-06-08T06:29:43.495Z,52.57
2019-06-08T06:32:16.587Z,52.71
2019-06-08T06:34:49.912Z,52.81
2019-06-08T06:37:22.152Z,52.79
2019-06-08T06:39:55.402Z,52.88
2019-06-08T06:42:27.647Z,53.07
2019-06-08T06:45:00.944Z,52.87
2019-06-08T06:47:35.203Z,53.06
2019-06-08T06:50:08.264Z,53.02
2019-06-08T06:52:40.555Z,53.25
2019-06-08T06:55:15.441Z,53.47
2019-06-08T06:57:49.327Z,53.23
2019-06-08T07:00:32.449Z,53.32
2019-06-08T07:03:04.687Z,53.55
2019-06-08T07:05:38.562Z,53.08
2019-06-08T07:08:10.803Z,53.28
2019-06-08T07:10:44.613Z,53.74
2019-06-08T07:13:17.809Z,54.17
2019-06-08T07:15:58.439Z,54.58
2019-06-08T07:18:32.257Z,54.56
2019-06-08T07:21:06.514Z,54.82
2019-06-08T07:23:40.570Z,54.62
2019-06-08T07:26:12.838Z,54.34
2019-06-08T07:28:48.142Z,54.50
2019-06-08T07:31:21.619Z,53.83
2019-06-08T07:33:55.768Z,54.08
2019-06-08T07:36:28.071Z,54.19
2019-06-08T07:39:01.116Z,54.11
2019-06-08T07:41:33.787Z,54.32
2019-06-08T07:44:07.299Z,54.12
2019-06-08T07:46:40.077Z,53.73
2019-06-08T07:49:13.917Z,53.51
2019-06-08T07:51:58.912Z,53.56
2019-06-08T07:54:44.523Z,52.96
2019-06-08T07:57:19.414Z,52.45
2019-06-08T07:59:53.208Z,52.26
2019-06-08T08:02:27.048Z,52.01
2019-06-08T08:05:02.419Z,52.06
2019-06-08T08:07:35.261Z,51.83
2019-06-08T08:10:08.663Z,51.47
2019-06-08T08:12:45.587Z,51.90
2019-06-08T08:15:17.172Z,51.72
2019-06-08T08:17:51.922Z,51.70
2019-06-08T08:20:25.748Z,50.99
2019-06-08T08:23:06.043Z,51.12
2019-06-08T08:25:43.113Z,50.93
2019-06-08T08:28:17.554Z,50.58
2019-06-08T08:30:53.749Z,50.97
2019-06-08T08:33:27.651Z,51.10
2019-06-08T08:36:01.848Z,50.04
2019-06-08T08:38:34.384Z,49.68
2019-06-08T08:41:10.817Z,49.43
2019-06-08T08:43:43.311Z,49.37
2019-06-08T08:46:17.297Z,48.49
2019-06-08T08:48:50.901Z,49.07
2019-06-08T08:51:27.950Z,48.19
2019-06-08T08:54:04.766Z,48.45
2019-06-08T08:56:38.404Z,47.79
2019-06-08T08:59:12.894Z,47.81
2019-06-08T09:01:48.131Z,47.54
2019-06-08T09:04:20.700Z,47.08
2019-06-08T09:06:55.539Z,46.84
2019-06-08T09:09:31.815Z,47.80
2019-06-08T09:12:04.895Z,48.02
2019-06-08T09:14:41.830Z,47.35
2019-06-08T09:17:18.071Z,46.58
2019-06-08T09:19:52.528Z,46.30
2019-06-08T09:22:32.086Z,45.93
2019-06-08T09:25:08.654Z,45.03
2019-06-08T09:27:41.173Z,45.78
2019-06-08T09:30:18.047Z,46.46
2019-06-08T09:32:54.342Z,46.91
2019-06-08T09:35:28.854Z,47.91
2019-06-08T09:38:04.882Z,48.05
2019-06-08T09:40:38.616Z,47.88
2019-06-08T09:43:13.177Z,47.27
2019-06-08T09:45:48.303Z,47.74
2019-06-08T09:48:20.924Z,48.56
2019-06-08T09:50:53.151Z,49.10
2019-06-08T09:53:37.093Z,49.45
2019-06-08T09:56:13.084Z,48.53
2019-06-08T09:58:45.430Z,49.11
2019-06-08T10:01:18.742Z,49.07
2019-06-08T10:03:52.358Z,48.37
2019-06-08T10:06:25.863Z,48.53
2019-06-08T10:08:58.543Z,49.14
2019-06-08T10:11:31.108Z,48.45
2019-06-08T10:14:08.539Z,48.72
2019-06-08T10:17:02.665Z,48.65
2019-06-08T10:19:41.577Z,49.38
2019-06-08T10:22:19.997Z,48.02
2019-06-08T10:24:55.472Z,48.77
2019-06-08T10:27:32.749Z,48.46
2019-06-08T10:30:09.999Z,48.02
2019-06-08T10:32:50.386Z,48.78
2019-06-08T10:35:24.540Z,46.80
2019-06-08T10:38:01.483Z,48.00
2019-06-08T10:41:06.530Z,46.45
2019-06-08T10:43:44.989Z,46.05
2019-06-08T10:46:20.753Z,45.91
2019-06-08T10:48:55.247Z,45.44
2019-06-08T10:51:27.558Z,45.86
2019-06-08T10:53:59.996Z,46.00
2019-06-08T10:56:32.457Z,45.60
2019-06-08T10:59:07.208Z,45.30
2019-06-08T11:01:42.297Z,45.93
2019-06-08T11:04:18.621Z,46.01
2019-06-08T11:06:54.010Z,45.63
2019-06-08T11:09:28.515Z,45.06
2019-06-08T11:12:03.898Z,45.22
2019-06-08T11:14:38.270Z,45.30
2019-06-08T11:17:13.103Z,44.97
2019-06-08T11:19:47.882Z,44.94
2019-06-08T11:22:20.398Z,45.15
2019-06-08T11:24:52.659Z,45.32
2019-06-08T11:27:24.955Z,45.87
2019-06-08T11:29:57.814Z,45.88
2019-06-08T11:32:31.468Z,46.41
2019-06-08T11:35:05.790Z,45.42
2019-06-08T11:37:40.908Z,45.63
2019-06-08T11:40:14.004Z,44.79
2019-06-08T11:42:48.516Z,44.97
2019-06-08T11:45:22.304Z,44.55
2019-06-08T11:47:58.321Z,45.03
2019-06-08T11:50:49.036Z,44.84
2019-06-08T11:53:24.355Z,45.38
2019-06-08T11:55:58.608Z,46.31
2019-06-08T11:58:32.782Z,45.75
2019-06-08T12:01:11.621Z,46.33
2019-06-08T12:03:48.399Z,46.28
2019-06-08T12:06:23.556Z,44.91
2019-06-08T12:09:00.128Z,45.10
2019-06-08T12:11:33.679Z,44.49
2019-06-08T12:14:09.243Z,43.43
2019-06-08T12:16:48.526Z,43.38
2019-06-08T12:19:22.014Z,43.63
2019-06-08T12:21:54.393Z,44.03
2019-06-08T12:24:40.978Z,44.02
2019-06-08T12:27:29.545Z,44.41
2019-06-08T12:30:15.928Z,44.54
2019-06-08T12:32:50.355Z,44.76
2019-06-08T12:35:22.628Z,44.21
2019-06-08T12:37:54.948Z,44.47
2019-06-08T12:40:29.400Z,43.07
2019-06-08T12:43:01.770Z,43.30
2019-06-08T12:45:38.073Z,43.82
2019-06-08T12:51:24.222Z,44.03
2019-06-08T12:54:00.318Z,43.80
2019-06-08T12:56:32.893Z,43.99
2019-06-08T12:59:07.987Z,43.28
2019-06-08T13:01:44.552Z,43.29
2019-06-08T13:04:21.364Z,42.94
2019-06-08T13:06:54.385Z,42.47
2019-06-08T13:09:29.701Z,42.67
2019-06-08T13:12:03.416Z,43.36
2019-06-08T13:14:35.749Z,42.90
2019-06-08T13:17:10.370Z,41.57
2019-06-08T13:19:44.683Z,42.18
2019-06-08T13:22:19.362Z,42.41
2019-06-08T13:24:56.312Z,41.37
2019-06-08T13:27:30.434Z,41.46
2019-06-08T13:30:07.507Z,41.58
2019-06-08T13:32:40.751Z,41.58
2019-06-08T13:35:19.104Z,40.61
2019-06-08T13:37:52.972Z,39.23
2019-06-08T13:40:25.350Z,39.32
2019-06-08T13:42:58.756Z,39.63
2019-06-08T13:45:31.090Z,39.66
2019-06-08T13:48:04.444Z,40.45
2019-06-08T13:50:36.690Z,41.05
2019-06-08T13:53:10.869Z,41.57
2019-06-08T13:55:53.275Z,40.69
2019-06-08T13:58:33.199Z,40.04
2019-06-08T14:01:11.236Z,39.73
2019-06-08T14:03:44.244Z,40.31
2019-06-08T14:06:18.575Z,40.12
2019-06-08T14:08:52.278Z,40.84
2019-06-08T14:11:28.025Z,40.54
2019-06-08T14:14:02.027Z,40.36
2019-06-08T14:16:35.504Z,40.78
2019-06-08T14:19:08.568Z,41.14
2019-06-08T14:21:41.921Z,41.71
2019-06-08T14:24:22.823Z,41.04
2019-06-08T14:27:08.418Z,41.42
2019-06-08T14:29:41.742Z,41.93
2019-06-08T14:32:14.206Z,42.35
2019-06-08T14:34:50.195Z,41.84
2019-06-08T14:37:22.909Z,42.54
2019-06-08T14:40:08.199Z,43.27
2019-06-08T14:42:42.578Z,43.25
2019-06-08T14:45:18.138Z,42.86
2019-06-08T14:47:51.615Z,42.11
2019-06-08T14:50:29.259Z,42.32
2019-06-08T14:53:04.149Z,41.23
2019-06-08T14:55:49.962Z,41.59
2019-06-08T14:58:34.594Z,41.83
2019-06-08T15:01:23.933Z,42.49
2019-06-08T15:04:08.840Z,46.49
2019-06-08T15:06:48.662Z,55.42
2019-06-08T15:09:21.422Z,59.00
2019-06-08T15:11:54.460Z,59.48
2019-06-08T15:14:29.303Z,60.02
2019-06-08T15:17:05.488Z,57.25
2019-06-08T15:19:37.728Z,56.37
2019-06-08T15:22:11.893Z,55.26
2019-06-08T15:24:44.995Z,53.41
2019-06-08T15:27:20.885Z,53.16
2019-06-08T15:29:53.862Z,51.22
2019-06-08T15:32:28.272Z,49.40
2019-06-08T15:35:08.291Z,49.14
2019-06-08T15:37:44.572Z,48.87
2019-06-08T15:40:19.923Z,48.30
2019-06-08T15:42:52.224Z,47.14
2019-06-08T15:45:24.674Z,46.02
2019-06-08T15:47:58.648Z,46.12
2019-06-08T15:50:32.624Z,46.43
2019-06-08T15:53:08.332Z,46.90
2019-06-08T15:55:41.836Z,47.28
2019-06-08T15:58:14.159Z,48.07
2019-06-08T16:00:46.641Z,48.05
2019-06-08T16:03:34.280Z,48.27
2019-06-08T16:06:08.413Z,48.74
2019-06-08T16:08:42.154Z,48.70
2019-06-08T16:11:41.439Z,48.31
2019-06-08T16:14:13.798Z,49.06
2019-06-08T16:16:46.757Z,48.55
2019-06-08T16:19:22.028Z,46.73
2019-06-08T16:21:57.131Z,45.41
2019-06-08T16:24:31.852Z,42.93
2019-06-08T16:27:08.721Z,42.73
2019-06-08T16:29:43.223Z,41.35
2019-06-08T16:32:15.506Z,41.24
2019-06-08T16:34:48.012Z,41.17
2019-06-08T16:37:23.948Z,41.54
2019-06-08T16:40:04.786Z,42.07
2019-06-08T16:42:41.623Z,43.76
2019-06-08T16:45:17.337Z,47.63
2019-06-08T16:47:50.767Z,49.35
2019-06-08T16:50:28.079Z,50.62
2019-06-08T16:53:04.388Z,51.08
2019-06-08T16:55:40.518Z,51.57
2019-06-08T16:58:20.734Z,52.06
2019-06-08T17:00:55.256Z,52.57
2019-06-08T17:03:43.989Z,52.81
2019-06-08T17:06:17.956Z,52.95
2019-06-08T17:08:51.691Z,53.44
2019-06-08T17:11:25.202Z,54.78
2019-06-08T17:13:59.586Z,55.43
2019-06-08T17:16:46.676Z,55.98
2019-06-08T17:19:57.090Z,56.30
2019-06-08T17:22:34.496Z,56.34
2019-06-08T17:25:08.817Z,56.50
2019-06-08T17:27:42.262Z,56.19
2019-06-08T17:30:17.353Z,56.16
2019-06-08T17:32:50.580Z,56.04
2019-06-08T17:35:24.113Z,55.80
2019-06-08T17:37:56.568Z,55.92
2019-06-08T17:40:34.308Z,55.86
2019-06-08T17:43:06.715Z,55.89
2019-06-08T17:45:41.112Z,55.95
2019-06-08T17:48:17.314Z,55.91
2019-06-08T17:50:57.887Z,55.83
2019-06-08T17:53:30.361Z,55.51
2019-06-08T17:56:03.682Z,55.08
2019-06-08T17:58:39.254Z,54.83
2019-06-08T18:01:17.526Z,54.54
2019-06-08T18:03:57.487Z,54.19
2019-06-08T18:06:34.243Z,53.82
2019-06-08T18:09:07.846Z,53.83
2019-06-08T18:11:44.974Z,53.22
2019-06-08T18:14:23.639Z,53.16
2019-06-08T18:16:57.458Z,53.50
2019-06-08T18:19:32.374Z,53.69
2019-06-08T18:22:15.116Z,53.28
2019-06-08T18:24:49.564Z,52.73
2019-06-08T18:27:27.841Z,52.81
2019-06-08T18:30:08.313Z,53.11
2019-06-08T18:32:50.491Z,53.29
2019-06-08T18:35:27.752Z,52.30
2019-06-08T18:38:00.230Z,50.90
2019-06-08T18:40:37.596Z,51.41
2019-06-08T18:43:16.955Z,52.43
2019-06-08T18:45:51.902Z,53.25
2019-06-08T18:48:29.324Z,53.54
2019-06-08T18:51:04.033Z,54.31
2019-06-08T18:53:54.201Z,54.83
2019-06-08T18:56:45.084Z,55.08
2019-06-08T18:59:21.003Z,55.18
2019-06-08T19:01:53.270Z,55.46
2019-06-08T19:04:27.624Z,55.76
2019-06-08T19:07:03.308Z,56.17
2019-06-08T19:09:40.729Z,56.40
2019-06-08T19:12:17.202Z,56.93
2019-06-08T19:14:54.930Z,57.07
2019-06-08T19:17:39.784Z,57.36
2019-06-08T19:20:18.095Z,57.76
2019-06-08T19:22:54.194Z,57.63
2019-06-08T19:25:29.407Z,57.39
2019-06-08T19:28:02.409Z,57.28
2019-06-08T19:30:41.680Z,57.29
2019-06-08T19:33:17.939Z,57.49
2019-06-08T19:35:54.869Z,57.34
2019-06-08T19:38:28.730Z,57.46
2019-06-08T19:41:02.497Z,57.51
2019-06-08T19:43:35.029Z,57.75
2019-06-08T19:46:10.441Z,57.97
2019-06-08T19:48:53.200Z,58.27
2019-06-08T19:51:30.724Z,58.95
2019-06-08T19:54:06.985Z,59.74
2019-06-08T19:56:41.913Z,60.32
2019-06-08T19:59:18.675Z,61.02
2019-06-08T20:01:56.124Z,61.96
2019-06-08T20:04:28.759Z,62.04
2019-06-08T20:07:02.055Z,62.33
2019-06-08T20:09:37.619Z,62.42
2019-06-08T20:12:10.207Z,62.36
2019-06-08T20:14:43.715Z,61.82
2019-06-08T20:17:19.414Z,60.97
2019-06-08T20:19:53.437Z,60.13
2019-06-08T20:22:27.783Z,59.51
2019-06-08T20:25:10.676Z,59.31
2019-06-08T20:27:49.874Z,59.05
2019-06-08T20:30:31.429Z,59.18
2019-06-08T20:33:08.224Z,59.39
2019-06-08T20:35:43.542Z,59.57
2019-06-08T20:38:25.855Z,59.60
2019-06-08T20:41:12.445Z,59.75
2019-06-08T20:43:52.127Z,59.77
2019-06-08T20:46:28.592Z,59.97
2019-06-08T20:49:02.143Z,60.04
2019-06-08T20:51:38.025Z,59.93
2019-06-08T20:54:11.272Z,59.88
2019-06-08T20:56:47.924Z,60.10
2019-06-08T20:59:29.841Z,60.38
2019-06-08T21:02:08.400Z,60.63
2019-06-08T21:04:41.007Z,60.81
2019-06-08T21:07:14.652Z,61.31
2019-06-08T21:09:50.645Z,61.81
2019-06-08T21:12:25.086Z,62.35
2019-06-08T21:14:57.419Z,62.81
2019-06-08T21:17:29.744Z,63.56
2019-06-08T21:20:03.792Z,64.29
2019-06-08T21:22:36.769Z,64.73
2019-06-08T21:25:09.121Z,65.23
2019-06-08T21:27:43.418Z,65.80
2019-06-08T21:30:24.538Z,66.21
2019-06-08T21:33:00.594Z,66.50
2019-06-08T21:35:35.197Z,66.63
2019-06-08T21:38:22.662Z,66.92
2019-06-08T21:41:02.107Z,67.10
2019-06-08T21:43:37.429Z,67.42
2019-06-08T21:46:11.447Z,67.45
2019-06-08T21:48:44.294Z,67.76
2019-06-08T21:51:17.617Z,67.94
2019-06-08T21:53:54.223Z,67.95
2019-06-08T21:56:27.669Z,68.13
2019-06-08T21:59:01.600Z,68.28
2019-06-08T22:01:37.436Z,68.36
2019-06-08T22:04:18.606Z,68.43
2019-06-08T22:06:54.101Z,68.66
2019-06-08T22:09:31.330Z,68.58
2019-06-08T22:12:07.189Z,68.50
2019-06-08T22:14:40.724Z,68.45
2019-06-08T22:17:19.511Z,68.64
2019-06-08T22:19:53.109Z,68.84
2019-06-08T22:22:26.522Z,68.87
2019-06-08T22:25:03.680Z,69.02
2019-06-08T22:27:38.147Z,69.25
2019-06-08T22:30:32.456Z,69.26
2019-06-08T22:33:12.475Z,69.01
2019-06-08T22:35:47.802Z,69.18
2019-06-08T22:38:20.974Z,69.08
2019-06-08T22:40:57.349Z,68.64
2019-06-08T22:43:33.006Z,68.42
2019-06-08T22:46:08.246Z,68.42
2019-06-08T22:48:40.964Z,68.51
2019-06-08T22:51:18.212Z,68.68
2019-06-08T22:53:51.202Z,68.67
2019-06-08T22:56:24.221Z,68.72
2019-06-08T22:59:00.543Z,68.82
2019-06-08T23:01:38.386Z,68.94
2019-06-08T23:04:13.767Z,69.16
2019-06-08T23:06:48.288Z,69.26
2019-06-08T23:09:20.602Z,69.21
2019-06-08T23:11:52.852Z,69.33
2019-06-08T23:14:25.156Z,69.39
2019-06-08T23:16:59.591Z,69.46
2019-06-08T23:19:33.441Z,69.59
2019-06-08T23:22:12.622Z,69.72
2019-06-08T23:24:53.920Z,69.87
2019-06-08T23:27:27.968Z,69.91
2019-06-08T23:30:06.073Z,70.07
2019-06-08T23:32:44.869Z,70.41
2019-06-08T23:35:18.201Z,70.46
2019-06-08T23:37:50.754Z,70.65
2019-06-08T23:40:23.017Z,70.73
2019-06-08T23:42:55.248Z,70.85
2019-06-08T23:45:27.540Z,70.74
2019-06-08T23:48:01.048Z,70.77
2019-06-08T23:50:33.832Z,70.72
2019-06-08T23:53:09.181Z,70.79
2019-06-08T23:55:44.110Z,70.94
2019-06-08T23:58:17.462Z,71.37
